createdAt,value
2022-09-15T00:00:13.723Z,96.39
2022-09-15T00:02:46.107Z,96.72
2022-09-15T00:05:15.976Z,96.46
2022-09-15T00:07:46.293Z,96.70
2022-09-15T00:10:16.372Z,96.79
2022-09-15T00:12:47.690Z,96.72
2022-09-15T00:15:19.026Z,96.21
2022-09-15T00:17:55.005Z,96.38
2022-09-15T00:20:25.601Z,97.10
2022-09-15T00:22:55.585Z,97.55
2022-09-15T00:25:25.641Z,97.56
2022-09-15T00:27:55.802Z,97.86
2022-09-15T00:30:26.401Z,98.46
2022-09-15T00:32:56.627Z,98.68
2022-09-15T00:35:26.794Z,98.91
2022-09-15T00:37:57.198Z,98.85
2022-09-15T00:40:28.830Z,99.10
2022-09-15T00:42:59.234Z,99.13
2022-09-15T00:45:29.031Z,99.39
2022-09-15T00:47:59.839Z,100.00
2022-09-15T00:50:30.655Z,99.59
2022-09-15T00:53:07.350Z,100.00
2022-09-15T00:55:56.153Z,99.81
2022-09-15T00:58:40.374Z,100.00
2022-09-15T01:01:10.921Z,100.00
2022-09-15T01:03:42.209Z,100.00
2022-09-15T01:06:36.751Z,100.00
2022-09-15T01:09:17.880Z,100.00
2022-09-15T01:11:48.247Z,100.00
2022-09-15T01:14:19.123Z,100.00
2022-09-15T01:16:56.978Z,100.00
2022-09-15T01:19:44.694Z,100.00
2022-09-15T01:22:33.256Z,100.00
2022-09-15T01:25:11.025Z,100.00
2022-09-15T01:28:04.911Z,100.00
2022-09-15T01:30:45.061Z,100.00
2022-09-15T01:33:45.649Z,100.00
2022-09-15T01:36:29.783Z,99.77
2022-09-15T01:39:14.812Z,99.09
2022-09-15T01:42:02.746Z,98.01
2022-09-15T01:44:42.091Z,98.00
2022-09-15T01:47:16.965Z,98.16
2022-09-15T01:50:01.303Z,97.24
2022-09-15T01:52:32.711Z,97.46
2022-09-15T01:55:11.758Z,97.29
2022-09-15T01:57:42.599Z,96.86
2022-09-15T02:00:13.040Z,95.49
2022-09-15T02:02:59.431Z,95.67
2022-09-15T02:05:51.203Z,94.76
2022-09-15T02:08:40.101Z,93.43
2022-09-15T02:11:22.020Z,93.21
2022-09-15T02:14:13.002Z,93.88
2022-09-15T02:16:50.492Z,93.54
2022-09-15T02:19:35.225Z,94.79
2022-09-15T02:22:18.998Z,94.61
2022-09-15T02:25:04.683Z,93.90
2022-09-15T02:27:40.338Z,93.80
2022-09-15T02:30:15.595Z,95.14
2022-09-15T02:32:59.822Z,95.23
2022-09-15T02:35:33.222Z,96.19
2022-09-15T02:38:05.541Z,95.57
2022-09-15T02:40:38.873Z,95.12
2022-09-15T02:43:13.823Z,95.59
2022-09-15T02:45:45.546Z,94.90
2022-09-15T02:48:16.128Z,93.73
2022-09-15T02:50:46.842Z,92.74
2022-09-15T02:53:16.751Z,91.73
2022-09-15T02:55:46.222Z,91.59
2022-09-15T02:58:17.053Z,90.73
2022-09-15T03:00:46.922Z,91.14
2022-09-15T03:03:17.813Z,90.92
2022-09-15T03:05:47.587Z,90.88
2022-09-15T03:08:17.640Z,89.79
2022-09-15T03:10:48.320Z,89.95
2022-09-15T03:13:19.868Z,89.89
2022-09-15T03:15:50.972Z,89.90
2022-09-15T03:18:21.074Z,90.68
2022-09-15T03:20:50.544Z,89.53
2022-09-15T03:23:21.410Z,89.02
2022-09-15T03:25:51.384Z,89.14
2022-09-15T03:28:21.021Z,88.69
2022-09-15T03:30:51.676Z,88.66
2022-09-15T03:33:22.035Z,88.53
2022-09-15T03:35:53.754Z,88.04
2022-09-15T03:38:28.103Z,88.57
2022-09-15T03:41:00.302Z,87.70
2022-09-15T03:43:31.926Z,87.38
2022-09-15T03:46:03.105Z,87.18
2022-09-15T03:48:36.006Z,86.54
2022-09-15T03:51:07.410Z,85.22
2022-09-15T03:53:38.850Z,84.49
2022-09-15T03:56:27.498Z,85.67
2022-09-15T03:58:57.261Z,83.95
2022-09-15T04:01:27.128Z,83.30
2022-09-15T04:03:59.321Z,82.11
2022-09-15T04:06:29.453Z,82.35
2022-09-15T04:09:01.805Z,82.05
2022-09-15T04:11:32.207Z,81.99
2022-09-15T04:14:02.343Z,81.77
2022-09-15T04:16:31.923Z,80.23
2022-09-15T04:19:01.775Z,78.73
2022-09-15T04:21:33.211Z,78.23
2022-09-15T04:24:06.170Z,78.89
2022-09-15T04:26:38.866Z,79.76
2022-09-15T04:29:21.165Z,78.35
2022-09-15T04:31:51.699Z,77.29
2022-09-15T04:34:22.480Z,76.41
2022-09-15T04:36:52.850Z,75.65
2022-09-15T04:39:24.242Z,75.87
2022-09-15T04:41:54.166Z,74.77
2022-09-15T04:44:24.951Z,74.99
2022-09-15T04:46:54.883Z,75.16
2022-09-15T04:49:26.056Z,75.02
2022-09-15T04:51:56.460Z,74.25
2022-09-15T04:54:30.012Z,74.17
2022-09-15T04:56:59.992Z,74.05
2022-09-15T04:59:30.071Z,73.77
2022-09-15T05:02:00.243Z,74.09
2022-09-15T05:04:30.340Z,72.60
2022-09-15T05:07:00.377Z,73.75
2022-09-15T05:09:33.423Z,72.15
2022-09-15T05:12:04.019Z,71.84
2022-09-15T05:14:38.158Z,71.68
2022-09-15T05:17:08.070Z,71.92
2022-09-15T05:19:38.032Z,71.45
2022-09-15T05:22:07.959Z,71.78
2022-09-15T05:24:37.727Z,72.01
2022-09-15T05:27:07.943Z,71.44
2022-09-15T05:29:39.662Z,71.44
2022-09-15T05:32:11.283Z,69.77
2022-09-15T05:34:41.016Z,69.11
2022-09-15T05:37:11.901Z,68.99
2022-09-15T05:39:42.354Z,68.46
2022-09-15T05:42:12.654Z,68.49
2022-09-15T05:44:42.667Z,67.90
2022-09-15T05:47:14.249Z,68.55
2022-09-15T05:49:44.476Z,67.42
2022-09-15T05:52:14.374Z,66.87
2022-09-15T05:54:44.501Z,67.16
2022-09-15T05:57:15.187Z,66.80
2022-09-15T05:59:45.688Z,66.00
2022-09-15T06:02:16.021Z,68.37
2022-09-15T06:04:45.888Z,68.24
2022-09-15T06:07:21.123Z,68.99
2022-09-15T06:09:51.234Z,69.31
2022-09-15T06:12:21.971Z,69.36
2022-09-15T06:14:52.306Z,68.24
2022-09-15T06:17:24.679Z,69.27
2022-09-15T06:19:54.509Z,68.39
2022-09-15T06:22:24.004Z,67.83
2022-09-15T06:24:54.586Z,69.80
2022-09-15T06:27:24.440Z,69.20
2022-09-15T06:29:54.161Z,67.74
2022-09-15T06:32:25.109Z,67.92
2022-09-15T06:34:54.929Z,66.78
2022-09-15T06:37:25.339Z,67.55
2022-09-15T06:39:55.309Z,67.29
2022-09-15T06:42:25.729Z,67.32
2022-09-15T06:44:56.006Z,65.46
2022-09-15T06:47:26.157Z,65.51
2022-09-15T06:49:57.001Z,65.18
2022-09-15T06:52:27.712Z,65.45
2022-09-15T06:54:57.453Z,65.74
2022-09-15T06:57:28.149Z,66.99
2022-09-15T06:59:59.188Z,68.30
2022-09-15T07:02:30.398Z,68.21
2022-09-15T07:05:00.710Z,68.05
2022-09-15T07:07:31.743Z,67.76
2022-09-15T07:10:02.179Z,68.23
2022-09-15T07:12:33.984Z,66.07
2022-09-15T07:15:03.852Z,66.21
2022-09-15T07:17:38.981Z,66.10
2022-09-15T07:20:09.120Z,67.26
2022-09-15T07:22:40.260Z,67.45
2022-09-15T07:25:10.563Z,66.80
2022-09-15T07:27:41.705Z,66.06
2022-09-15T07:30:15.064Z,67.02
2022-09-15T07:32:45.473Z,66.10
2022-09-15T07:35:15.393Z,66.57
2022-09-15T07:37:46.630Z,66.11
2022-09-15T07:40:17.139Z,66.33
2022-09-15T07:42:47.874Z,67.25
2022-09-15T07:45:33.490Z,67.33
2022-09-15T07:48:05.327Z,68.65
2022-09-15T07:50:42.076Z,66.41
2022-09-15T07:53:13.989Z,64.74
2022-09-15T07:55:43.711Z,64.23
2022-09-15T07:58:13.781Z,65.40
2022-09-15T08:00:44.307Z,64.01
2022-09-15T08:03:14.978Z,65.78
2022-09-15T08:05:45.814Z,65.22
2022-09-15T08:08:17.912Z,64.78
2022-09-15T08:10:56.950Z,65.89
2022-09-15T08:13:31.335Z,66.55
2022-09-15T08:16:16.933Z,65.65
2022-09-15T08:18:55.670Z,65.80
2022-09-15T08:21:27.395Z,66.15
2022-09-15T08:24:00.370Z,66.04
2022-09-15T08:26:32.868Z,66.27
2022-09-15T08:29:03.382Z,66.50
2022-09-15T08:31:34.179Z,66.87
2022-09-15T08:34:07.691Z,66.90
2022-09-15T08:36:37.952Z,67.34
2022-09-15T08:39:08.445Z,66.81
2022-09-15T08:41:48.220Z,66.33
2022-09-15T08:44:25.021Z,66.73
2022-09-15T08:47:00.749Z,67.07
2022-09-15T08:49:51.951Z,67.59
2022-09-15T08:52:32.175Z,67.82
2022-09-15T08:55:17.580Z,68.01
2022-09-15T08:57:47.967Z,66.65
2022-09-15T09:00:18.994Z,66.13
2022-09-15T09:03:20.764Z,65.85
2022-09-15T09:06:07.897Z,66.14
2022-09-15T09:08:49.771Z,65.36
2022-09-15T09:11:52.223Z,63.11
2022-09-15T09:14:56.133Z,62.71
2022-09-15T09:17:26.255Z,63.42
2022-09-15T09:20:03.545Z,63.51
2022-09-15T09:22:39.279Z,63.56
2022-09-15T09:25:27.090Z,64.08
2022-09-15T09:28:03.875Z,64.06
2022-09-15T09:30:37.023Z,64.61
2022-09-15T09:33:13.326Z,64.89
2022-09-15T09:35:51.049Z,65.64
2022-09-15T09:38:30.287Z,66.72
2022-09-15T09:41:02.484Z,68.06
2022-09-15T09:43:34.702Z,68.57
2022-09-15T09:46:12.502Z,68.73
2022-09-15T09:48:47.878Z,70.24
2022-09-15T09:51:38.278Z,70.05
2022-09-15T09:54:14.076Z,70.23
2022-09-15T09:56:52.466Z,70.77
2022-09-15T09:59:40.709Z,69.89
2022-09-15T10:02:10.834Z,70.46
2022-09-15T10:04:52.293Z,70.06
2022-09-15T10:07:35.544Z,71.02
2022-09-15T10:10:06.852Z,71.16
2022-09-15T10:12:43.364Z,70.32
2022-09-15T10:15:28.315Z,71.11
2022-09-15T10:18:00.070Z,69.73
2022-09-15T10:20:51.312Z,68.31
2022-09-15T10:23:24.271Z,68.46
2022-09-15T10:25:59.825Z,68.63
2022-09-15T10:28:31.514Z,69.25
2022-09-15T10:31:07.656Z,69.77
2022-09-15T10:33:43.487Z,69.91
2022-09-15T10:36:20.479Z,70.46
2022-09-15T10:39:14.488Z,69.38
2022-09-15T10:42:23.641Z,69.50
2022-09-15T10:45:05.685Z,69.87
2022-09-15T10:48:17.036Z,69.56
2022-09-15T10:51:06.461Z,68.95
2022-09-15T10:54:11.716Z,69.50
2022-09-15T10:56:44.435Z,70.32
2022-09-15T10:59:47.269Z,69.04
2022-09-15T11:02:44.896Z,68.63
2022-09-15T11:05:33.212Z,68.79
2022-09-15T11:08:06.070Z,70.28
2022-09-15T11:11:01.839Z,69.61
2022-09-15T11:13:43.348Z,68.95
2022-09-15T11:16:32.797Z,68.85
2022-09-15T11:19:04.625Z,69.91
2022-09-15T11:21:43.874Z,70.26
2022-09-15T11:24:14.202Z,69.97
2022-09-15T11:26:54.302Z,69.96
2022-09-15T11:29:45.809Z,68.46
2022-09-15T11:32:32.811Z,69.99
2022-09-15T11:35:32.974Z,69.76
2022-09-15T11:38:32.083Z,71.45
2022-09-15T11:41:36.300Z,71.67
2022-09-15T11:44:21.060Z,71.55
2022-09-15T11:47:03.429Z,72.95
2022-09-15T11:50:06.923Z,72.46
2022-09-15T11:52:55.374Z,72.63
2022-09-15T11:55:40.360Z,72.48
2022-09-15T11:58:58.647Z,71.86
2022-09-15T12:01:50.023Z,71.69
2022-09-15T12:04:34.304Z,71.82
2022-09-15T12:07:04.332Z,71.70
2022-09-15T12:09:35.648Z,72.64
2022-09-15T12:12:13.841Z,72.34
2022-09-15T12:14:47.221Z,73.62
2022-09-15T12:17:25.878Z,74.62
2022-09-15T12:20:24.078Z,74.64
2022-09-15T12:23:13.619Z,75.13
2022-09-15T12:26:06.996Z,75.41
2022-09-15T12:28:44.728Z,76.88
2022-09-15T12:31:32.404Z,76.70
2022-09-15T12:34:06.342Z,77.87
2022-09-15T12:36:51.127Z,76.86
2022-09-15T12:39:25.760Z,76.13
2022-09-15T12:42:06.812Z,76.03
2022-09-15T12:44:44.133Z,75.59
2022-09-15T12:47:22.931Z,75.10
2022-09-15T12:49:55.582Z,73.97
2022-09-15T12:52:27.417Z,74.98
2022-09-15T12:55:04.688Z,74.78
2022-09-15T12:57:39.581Z,75.07
2022-09-15T13:00:33.725Z,75.16
2022-09-15T13:03:09.188Z,75.65
2022-09-15T13:05:47.695Z,75.22
2022-09-15T13:08:40.100Z,75.32
2022-09-15T13:11:40.340Z,76.85
2022-09-15T13:14:11.979Z,77.39
2022-09-15T13:16:48.238Z,77.35
2022-09-15T13:19:26.412Z,77.67
2022-09-15T13:22:20.106Z,78.23
2022-09-15T13:25:26.755Z,77.72
2022-09-15T13:28:02.484Z,78.01
2022-09-15T13:31:04.540Z,77.79
2022-09-15T13:40:54.325Z,79.93
2022-09-15T13:43:45.641Z,79.49
2022-09-15T13:46:29.586Z,79.92
2022-09-15T13:49:20.565Z,80.19
2022-09-15T13:52:09.886Z,79.83
2022-09-15T13:54:39.913Z,80.76
2022-09-15T13:57:10.611Z,81.02
2022-09-15T13:59:42.675Z,81.30
2022-09-15T14:02:17.499Z,81.59
2022-09-15T14:04:53.338Z,81.22
2022-09-15T14:07:26.402Z,81.94
2022-09-15T14:09:56.381Z,82.09
2022-09-15T14:12:26.582Z,81.24
2022-09-15T14:15:02.496Z,82.41
2022-09-15T14:17:46.046Z,82.00
2022-09-15T14:20:27.561Z,81.52
2022-09-15T14:22:57.438Z,82.49
2022-09-15T14:25:29.691Z,82.65
2022-09-15T14:27:59.073Z,82.22
2022-09-15T14:30:33.675Z,83.46
2022-09-15T14:33:05.343Z,83.50
2022-09-15T14:35:39.692Z,83.65
2022-09-15T14:38:20.825Z,83.79
2022-09-15T14:40:58.528Z,83.76
2022-09-15T14:43:34.022Z,83.52
2022-09-15T14:46:15.247Z,82.38
2022-09-15T14:48:45.489Z,83.62
2022-09-15T14:51:24.876Z,84.22
2022-09-15T14:53:59.295Z,83.17
2022-09-15T14:56:37.740Z,82.48
2022-09-15T14:59:13.864Z,84.06
2022-09-15T15:02:12.017Z,84.34
2022-09-15T15:04:44.784Z,82.73
2022-09-15T15:07:27.614Z,82.00
2022-09-15T15:10:15.162Z,82.02
2022-09-15T15:13:00.866Z,81.56
2022-09-15T15:15:33.290Z,81.81
2022-09-15T15:18:03.102Z,81.28
2022-09-15T15:20:33.317Z,82.76
2022-09-15T15:23:28.569Z,82.67
2022-09-15T15:26:35.641Z,82.33
2022-09-15T15:29:31.060Z,82.12
2022-09-15T15:32:18.487Z,81.90
2022-09-15T15:35:00.015Z,81.60
2022-09-15T15:37:33.659Z,82.05
2022-09-15T15:40:07.260Z,81.90
2022-09-15T15:42:37.569Z,81.69
2022-09-15T15:45:25.689Z,81.76
2022-09-15T15:47:55.883Z,82.31
2022-09-15T15:50:29.645Z,82.76
2022-09-15T15:53:00.227Z,82.34
2022-09-15T15:55:42.177Z,82.45
2022-09-15T15:58:13.924Z,82.67
2022-09-15T16:00:48.062Z,82.61
2022-09-15T16:03:23.479Z,82.84
2022-09-15T16:05:59.937Z,83.18
2022-09-15T16:08:34.662Z,83.52
2022-09-15T16:11:12.063Z,84.32
2022-09-15T16:13:47.413Z,84.68
2022-09-15T16:16:26.892Z,85.52
2022-09-15T16:18:58.311Z,85.94
2022-09-15T16:21:40.361Z,86.43
2022-09-15T16:24:17.487Z,86.25
2022-09-15T16:26:50.638Z,86.77
2022-09-15T16:29:29.424Z,86.66
2022-09-15T16:32:00.135Z,87.71
2022-09-15T16:34:30.391Z,87.66
2022-09-15T16:37:00.330Z,88.05
2022-09-15T16:39:31.115Z,87.88
2022-09-15T16:42:00.990Z,88.28
2022-09-15T16:44:31.414Z,88.70
2022-09-15T16:47:01.514Z,89.21
2022-09-15T16:49:31.778Z,89.03
2022-09-15T16:52:01.295Z,88.46
2022-09-15T16:54:31.465Z,89.40
2022-09-15T16:57:01.441Z,88.87
2022-09-15T16:59:33.326Z,88.99
2022-09-15T17:02:03.404Z,88.83
2022-09-15T17:04:33.812Z,89.64
2022-09-15T17:07:03.926Z,88.40
2022-09-15T17:09:34.567Z,88.75
2022-09-15T17:12:06.163Z,88.58
2022-09-15T17:14:36.545Z,88.38
2022-09-15T17:17:06.526Z,88.41
2022-09-15T17:19:36.980Z,88.60
2022-09-15T17:22:07.020Z,89.53
2022-09-15T17:24:37.354Z,89.47
2022-09-15T17:27:07.976Z,89.75
2022-09-15T17:29:38.545Z,89.96
2022-09-15T17:32:10.597Z,90.17
2022-09-15T17:34:41.198Z,90.42
2022-09-15T17:37:11.715Z,90.48
2022-09-15T17:39:42.140Z,90.70
2022-09-15T17:42:12.574Z,90.66
2022-09-15T17:44:42.897Z,90.49
2022-09-15T17:47:13.526Z,91.05
2022-09-15T17:49:44.267Z,90.48
2022-09-15T17:52:14.026Z,90.53
2022-09-15T17:54:44.170Z,90.55
2022-09-15T17:57:14.024Z,91.46
2022-09-15T17:59:44.160Z,90.98
2022-09-15T18:02:20.460Z,91.41
2022-09-15T18:04:50.705Z,91.94
2022-09-15T18:07:20.662Z,91.63
2022-09-15T18:09:50.150Z,92.04
2022-09-15T18:12:21.200Z,92.25
2022-09-15T18:14:51.211Z,92.72
2022-09-15T18:17:21.390Z,92.94
2022-09-15T18:19:53.418Z,93.34
2022-09-15T18:22:25.341Z,92.39
2022-09-15T18:24:55.390Z,92.66
2022-09-15T18:27:26.363Z,92.14
2022-09-15T18:29:56.373Z,92.38
2022-09-15T18:32:26.775Z,92.61
2022-09-15T18:34:56.468Z,92.80
2022-09-15T18:37:26.273Z,92.23
2022-09-15T18:39:56.433Z,91.92
2022-09-15T18:42:29.752Z,91.86
2022-09-15T18:45:01.555Z,91.73
2022-09-15T18:47:31.365Z,92.11
2022-09-15T18:50:02.764Z,91.92
2022-09-15T18:52:32.853Z,91.56
2022-09-15T18:55:03.750Z,91.73
2022-09-15T18:57:43.409Z,91.75
2022-09-15T19:00:22.676Z,91.77
2022-09-15T19:02:59.562Z,91.24
2022-09-15T19:05:31.991Z,91.12
2022-09-15T19:08:03.216Z,91.34
2022-09-15T19:10:34.123Z,91.55
2022-09-15T19:13:04.645Z,91.41
2022-09-15T19:15:36.039Z,90.82
2022-09-15T19:18:06.369Z,90.12
2022-09-15T19:20:36.498Z,89.66
2022-09-15T19:23:06.284Z,89.22
2022-09-15T19:25:36.348Z,89.52
2022-09-15T19:28:06.568Z,89.21
2022-09-15T19:30:36.704Z,89.43
2022-09-15T19:33:07.213Z,89.45
2022-09-15T19:35:37.377Z,89.81
2022-09-15T19:38:07.543Z,89.75
2022-09-15T19:40:37.479Z,89.46
2022-09-15T19:43:07.477Z,89.47
2022-09-15T19:45:37.837Z,89.68
2022-09-15T19:48:07.792Z,90.36
2022-09-15T19:50:37.729Z,90.57
2022-09-15T19:53:07.900Z,90.74
2022-09-15T19:55:38.042Z,91.24
2022-09-15T19:58:08.133Z,91.18
2022-09-15T20:00:38.419Z,91.91
2022-09-15T20:03:08.482Z,91.54
2022-09-15T20:05:38.319Z,92.26
2022-09-15T20:08:08.411Z,91.84
2022-09-15T20:10:41.084Z,92.13
2022-09-15T20:13:11.226Z,92.49
2022-09-15T20:15:41.995Z,92.67
2022-09-15T20:18:13.189Z,92.27
2022-09-15T20:20:43.327Z,92.88
2022-09-15T20:23:13.648Z,93.34
2022-09-15T20:25:43.321Z,93.45
2022-09-15T20:28:13.975Z,93.30
2022-09-15T20:30:43.714Z,93.93
2022-09-15T20:33:13.909Z,94.33
2022-09-15T20:35:43.632Z,94.57
2022-09-15T20:38:13.425Z,94.54
2022-09-15T20:40:43.628Z,94.07
2022-09-15T20:43:13.853Z,94.12
2022-09-15T20:45:43.685Z,94.30
2022-09-15T20:48:14.233Z,94.60
2022-09-15T20:50:44.505Z,94.96
2022-09-15T20:53:14.666Z,95.21
2022-09-15T20:55:51.675Z,94.83
2022-09-15T20:58:21.913Z,94.71
2022-09-15T21:00:53.422Z,94.77
2022-09-15T21:03:26.037Z,95.06
2022-09-15T21:06:02.106Z,95.57
2022-09-15T21:08:32.035Z,95.71
2022-09-15T21:11:03.275Z,95.99
2022-09-15T21:13:37.568Z,95.51
2022-09-15T21:16:10.660Z,95.84
2022-09-15T21:18:42.026Z,96.67
2022-09-15T21:21:17.900Z,96.09
2022-09-15T21:23:50.072Z,96.63
2022-09-15T21:26:28.983Z,96.35
2022-09-15T21:29:00.015Z,97.46
2022-09-15T21:31:32.701Z,97.35
2022-09-15T21:34:03.367Z,97.75
2022-09-15T21:36:33.534Z,98.14
2022-09-15T21:39:04.298Z,98.11
2022-09-15T21:41:34.206Z,97.87
2022-09-15T21:44:05.214Z,97.94
2022-09-15T21:46:35.194Z,98.56
2022-09-15T21:49:06.046Z,97.61
2022-09-15T21:51:35.803Z,97.72
2022-09-15T21:54:06.101Z,97.87
2022-09-15T21:56:36.105Z,98.32
2022-09-15T21:59:06.086Z,94.32
2022-09-15T22:01:36.099Z,91.83
2022-09-15T22:04:08.468Z,89.50
2022-09-15T22:06:39.265Z,86.59
2022-09-15T22:09:12.362Z,85.48
2022-09-15T22:11:42.901Z,84.71
2022-09-15T22:14:14.439Z,83.89
2022-09-15T22:16:45.444Z,85.22
2022-09-15T22:19:15.423Z,85.41
2022-09-15T22:21:46.006Z,86.66
2022-09-15T22:24:20.423Z,86.86
2022-09-15T22:26:50.570Z,88.16
2022-09-15T22:29:20.433Z,88.60
2022-09-15T22:31:50.522Z,88.50
2022-09-15T22:34:20.406Z,88.55
2022-09-15T22:36:50.894Z,88.57
2022-09-15T22:39:21.712Z,88.38
2022-09-15T22:41:54.549Z,88.10
2022-09-15T22:44:24.537Z,86.94
2022-09-15T22:46:54.863Z,87.00
2022-09-15T22:49:28.947Z,87.37
2022-09-15T22:51:58.965Z,86.71
2022-09-15T22:54:29.312Z,86.85
2022-09-15T22:56:59.201Z,87.06
2022-09-15T22:59:29.422Z,86.53
2022-09-15T23:01:59.715Z,86.22
2022-09-15T23:04:29.659Z,86.18
2022-09-15T23:06:59.675Z,86.04
2022-09-15T23:09:29.370Z,85.84
2022-09-15T23:11:59.374Z,87.09
2022-09-15T23:14:29.653Z,85.65
2022-09-15T23:16:59.395Z,85.77
2022-09-15T23:19:30.049Z,85.70
2022-09-15T23:22:00.183Z,85.69
2022-09-15T23:24:30.109Z,86.38
2022-09-15T23:27:00.434Z,85.81
2022-09-15T23:29:30.372Z,85.86
2022-09-15T23:32:01.501Z,85.70
2022-09-15T23:34:31.719Z,85.85
2022-09-15T23:37:02.024Z,86.19
2022-09-15T23:39:32.042Z,85.83
2022-09-15T23:42:02.664Z,85.59
2022-09-15T23:44:32.676Z,85.61
2022-09-15T23:47:02.302Z,86.13
2022-09-15T23:49:32.409Z,85.60
2022-09-15T23:52:02.534Z,86.29
2022-09-15T23:54:32.763Z,86.03
2022-09-15T23:57:02.693Z,85.70
2022-09-15T23:59:32.172Z,86.32
